Terminal Aerodrome Forecast
Issued by NWS

Home | Current Version | Previous Version | Text Only | Print | Product List | Glossary On
Versions: 1 2 3 4 5 6 7 8 9 10 11 12 13
000
FTUS43 KJKL 301736
TAFSME
TAF
KSME 301736Z 3018/3118 VRB05KT P6SM VCSH SCT070 BKN100
     FM310600 VRB05KT P6SM BKN040 BKN120
     FM310900 VRB03KT 4SM BR SCT100
     FM311300 VRB03KT P6SM FEW030 SCT100
     FM311500 VRB05KT P6SM SCT030=

USA.gov is the U.S. government's official web portal to all federal, state and local government web resources and services.